ADDS METAR Data INFO
IDs: Format: Raw Decoded Include TAF

Data at: 0923 UTC 13 Dec 2017

KDNV 130915Z AUTO 20006KT 10SM OVC090 M05/M12 A2986 RMK AO2 T10521122
KDNV 130855Z AUTO 20006KT 10SM BKN090 M06/M12 A2988 RMK AO2 T10571120
KDNV 130835Z AUTO 21005KT 10SM CLR M07/M12 A2988 RMK AO2 T10661125
KDNV 130815Z AUTO 19004KT 10SM SCT100 M06/M12 A2989 RMK AO2 T10651125
KDNV 130755Z AUTO 19004KT 10SM BKN100 M06/M12 A2990 RMK AO2 T10601120
KDNV 130735Z AUTO 18005KT 10SM SCT070 OVC100 M06/M12 A2990 RMK AO2 T10621116
KDNV 130715Z AUTO 16004KT 10SM SCT050 BKN070 OVC110 M06/M12 A2991 RMK AO2 T10651120
KDNV 130655Z AUTO 17004KT 10SM BKN050 OVC080 M06/M12 A2992 RMK AO2 T10651124
KDNV 130635Z AUTO 16003KT 10SM BKN050 OVC080 M06/M12 A2993 RMK AO2 T10631123
KDNV 130615Z AUTO 17004KT 10SM OVC050 M06/M13 A2995 RMK AO2 T10621129
KDNV 130555Z AUTO 00000KT 10SM OVC050 M06/M13 A2995 RMK AO2 T10611130 11060 21082 400051082
KDNV 130535Z AUTO 16004KT 10SM SCT036 BKN050 OVC055 M06/M13 A2995 RMK AO2 T10601131
KDNV 130515Z AUTO 16005KT 10SM OVC048 M06/M13 A2996 RMK AO2 T10601132
KDNV 130455Z AUTO 00000KT 10SM OVC046 M06/M13 A2999 RMK AO2 T10631135
KDNV 130435Z AUTO 00000KT 10SM BKN048 BKN060 OVC095 M07/M13 A2999 RMK AO2 T10671130
KDNV 130415Z AUTO 17004KT 10SM SCT050 SCT080 OVC095 M07/M13 A2999 RMK AO2 T10731129
KDNV 130355Z AUTO 00000KT 10SM SCT050 BKN075 OVC095 M07/M13 A3000 RMK AO2 T10731130
KDNV 130335Z AUTO 00000KT 10SM SCT050 OVC075 M07/M14 A3000 RMK AO2 T10701137
KDNV 130315Z AUTO 00000KT 10SM BKN050 BKN065 OVC075 M07/M14 A3002 RMK AO2 T10701137
KDNV 130255Z AUTO 00000KT 10SM OVC075 M07/M14 A3002 RMK AO2 T10701141
KDNV 130235Z AUTO 00000KT 10SM OVC075 M07/M14 A3003 RMK AO2 T10721140
KDNV 130215Z AUTO 31003KT 10SM BKN075 M08/M14 A3003 RMK AO2 T10801145
KDNV 130155Z AUTO 29004KT 10SM SCT080 M08/M15 A3002 RMK AO2 T10821148
KDNV 130130Z AUTO 31005KT 10SM SCT080 M07/M15 A3003 RMK AO2 T10731150
KDNV 130110Z AUTO 32006KT 10SM CLR M07/M15 A3003 RMK AO2 T10721151
KDNV 130055Z AUTO 29006KT 10SM CLR M07/M15 A3003 RMK AO2 T10701151
KDNV 130035Z AUTO 30007KT 10SM CLR M07/M15 A3003 RMK AO2 T10661153
KDNV 130015Z AUTO 29005KT 10SM CLR M07/M15 A3003 RMK AO2 T10701150
KDNV 122355Z AUTO 29005KT 10SM CLR M06/M15 A3003 RMK AO2 T10641150 11031 21064
KDNV 122335Z AUTO 30005KT 10SM CLR M06/M15 A3003 RMK AO2 T10601151
KDNV 122315Z AUTO 30007KT 10SM CLR M06/M15 A3003 RMK AO2 T10561150
KDNV 122255Z AUTO 30007KT 10SM CLR M05/M15 A3003 RMK AO2 T10511150
KDNV 122235Z AUTO 30006KT 10SM CLR M05/M15 A3003 RMK AO2 T10501146
KDNV 122215Z AUTO 30008KT 10SM CLR M05/M14 A3003 RMK AO2 T10461141
KDNV 122155Z AUTO 31009KT 10SM CLR M04/M14 A3003 RMK AO2 T10451144
KDNV 122135Z AUTO 31011KT 10SM CLR M04/M15 A3003 RMK AO2 T10391146
KDNV 122115Z AUTO 29012KT 10SM CLR M04/M14 A3003 RMK AO2 T10381144
KDNV 122055Z AUTO 31012G15KT 10SM CLR M03/M14 A3003 RMK AO2 T10341138
KDNV 122035Z AUTO 31011KT 10SM CLR M03/M14 A3003 RMK AO2 T10351142
KDNV 122015Z AUTO 30013KT 10SM CLR M03/M15 A3004 RMK AO2 T10341146
KDNV 122000Z AUTO 29012G18KT 10SM CLR M03/M14 A3003 RMK AO2 T10351140
KDNV 121935Z AUTO 31013G17KT 10SM CLR M03/M13 A3004 RMK AO2 T10311134
KDNV 121915Z AUTO 30014G19KT 10SM CLR M03/M13 A3005 RMK AO2 T10341133
KDNV 121855Z AUTO 30014G18KT 10SM CLR M03/M13 A3005 RMK AO2 T10331128
KDNV 121835Z AUTO 30011G22KT 10SM CLR M04/M13 A3006 RMK AO2 T10381129
KDNV 121815Z AUTO 31010G18KT 10SM CLR M04/M13 A3006 RMK AO2 T10401127
KDNV 121755Z AUTO 32013G19KT 10SM CLR M04/M13 A3007 RMK AO2 T10401127 11040 21068
KDNV 121735Z AUTO 30013G20KT 10SM CLR M04/M12 A3007 RMK AO2 T10411125
KDNV 121715Z AUTO 31016G19KT 10SM SCT028 M05/M13 A3008 RMK AO2 T10481131
KDNV 121655Z AUTO 30014KT 10SM BKN026 M05/M12 A3008 RMK AO2 T10481122
KDNV 121635Z AUTO 30014G20KT 10SM OVC026 M05/M12 A3009 RMK AO2 T10551124
KDNV 121615Z AUTO 30016G22KT 10SM BKN026 BKN032 M05/M12 A3009 RMK AO2 T10511118
KDNV 121555Z AUTO 33014G21KT 10SM BKN026 M06/M12 A3009 RMK AO2 T10571123
KDNV 121535Z AUTO 32013G20KT 10SM BKN026 M05/M12 A3009 RMK AO2 T10551122
KDNV 121515Z AUTO 32013G22KT 10SM SCT024 M06/M12 A3008 RMK AO2 T10571120
KDNV 121455Z AUTO 31014G20KT 10SM SCT024 M06/M12 A3008 RMK AO2 T10601117
KDNV 121435Z AUTO 31015G20KT 10SM CLR M06/M12 A3007 RMK AO2 T10611120
KDNV 121415Z AUTO 33014G23KT 10SM CLR M06/M12 A3007 RMK AO2 T10631118
KDNV 121355Z AUTO 32012KT 10SM CLR M07/M12 A3006 RMK AO2 T10661120
KDNV 121335Z AUTO 32011G15KT 10SM CLR M07/M12 A3006 RMK AO2 T10681121
KDNV 121315Z AUTO 32013KT 10SM CLR M07/M12 A3006 RMK AO2 T10671124
KDNV 121255Z AUTO 33011KT 10SM CLR M06/M12 A3005 RMK AO2 T10651125
KDNV 121235Z AUTO 33015G21KT 10SM CLR M06/M12 A3004 RMK AO2 T10631123
KDNV 121215Z AUTO 32014G19KT 10SM CLR M06/M12 A3003 RMK AO2 T10611120
KDNV 121155Z AUTO 33015G20KT 10SM CLR M06/M12 A3002 RMK AO2 T10601118 10005 21060
KDNV 121135Z AUTO 32016G23KT 10SM CLR M05/M12 A3000 RMK AO2 T10551116
KDNV 121115Z AUTO 32017G22KT 10SM CLR M05/M12 A3000 RMK AO2 T10501120
KDNV 121055Z AUTO 31017G22KT 10SM SCT042 M04/M11 A2999 RMK AO2 T10451115
KDNV 121035Z AUTO 33018G27KT 10SM SCT025 BKN042 M04/M11 A2998 RMK AO2 T10371112
KDNV 121015Z AUTO 33020G25KT 10SM OVC027 M02/M07 A2996 RMK AO2 T10211074
KDNV 120955Z AUTO 32014G22KT 10SM OVC027 M01/M07 A2995 RMK AO2 T10091067
KDNV 120935Z AUTO 31013G19KT 10SM OVC030 00/M06 A2994 RMK AO2 T10051065
KDNV 120915Z AUTO 31012G17KT 10SM BKN035 OVC041 00/M07 A2994 RMK AO2 T10051068
KDNV 120855Z AUTO 31012KT 10SM OVC042 00/M07 A2993 RMK AO2 T10051071
KDNV 120835Z AUTO 32015G25KT 10SM BKN034 OVC042 00/M07 A2993 RMK AO2 T10021075
KDNV 120815Z AUTO 31016G25KT 10SM SCT022 SCT028 OVC034 00/M06 A2993 RMK AO2 T10021056
KDNV 120755Z AUTO 33017G25KT 10SM OVC022 00/M04 A2992 RMK AO2 T00001045
KDNV 120735Z AUTO 33018G27KT 10SM OVC020 00/M04 A2990 RMK AO2 T00001040
KDNV 120715Z AUTO 33022G30KT 10SM OVC014 00/M03 A2989 RMK AO2 T00001031
KDNV 120655Z AUTO 31019G27KT 10SM OVC014 00/M03 A2989 RMK AO2 T00021026
KDNV 120635Z AUTO 32015G22KT 10SM OVC014 00/M02 A2988 RMK AO2 T00021025
KDNV 120615Z AUTO 33015G19KT 10SM OVC016 00/M02 A2987 RMK AO2 T00041023
KDNV 120555Z AUTO 32015G27KT 10SM OVC016 01/M02 A2987 RMK AO2 T00051025 10050 20005 400911073
KDNV 120535Z AUTO 32019G26KT 10SM OVC014 01/M02 A2986 RMK AO2 T00071022
KDNV 120515Z AUTO 32018G25KT 10SM OVC014 01/M02 A2986 RMK AO2 T00091019
KDNV 120455Z AUTO 31017G31KT 10SM OVC014 01/M02 A2985 RMK AO2 T00101017
KDNV 120435Z AUTO 31017G23KT 10SM OVC014 01/M02 A2984 RMK AO2 T00101016
KDNV 120415Z AUTO 31021G24KT 10SM OVC012 01/M01 A2983 RMK AO2 T00101010
KDNV 120355Z AUTO 30014G18KT 10SM OVC014 01/M01 A2981 RMK AO2 T00121011
KDNV 120335Z AUTO 31015G21KT 10SM BKN014 BKN020 OVC050 01/M02 A2980 RMK AO2 T00131016
KDNV 120315Z AUTO 31014G23KT 10SM OVC050 02/M02 A2979 RMK AO2 T00161021
KDNV 120255Z AUTO 30013G26KT 10SM SCT034 OVC060 02/M03 A2979 RMK AO2 T00201028
KDNV 120235Z AUTO 30013KT 10SM OVC060 02/M03 A2977 RMK AO2 T00201029
KDNV 120215Z AUTO 31013KT 10SM BKN070 OVC080 02/M03 A2975 RMK AO2 T00231030
KDNV 120155Z AUTO 30018G25KT 10SM SCT085 SCT090 BKN120 03/M03 A2973 RMK AO2 T00281027
KDNV 120135Z AUTO 30015G20KT 10SM SCT120 03/M03 A2972 RMK AO2 T00321028
KDNV 120115Z AUTO 28012G22KT 10SM SCT048 BKN120 04/M03 A2970 RMK AO2 T00351030
KDNV 120055Z AUTO 28013G20KT 10SM BKN046 04/M03 A2970 RMK AO2 T00411030
KDNV 120035Z AUTO 28015G20KT 10SM BKN044 05/M03 A2969 RMK AO2 T00451032
KDNV 120015Z AUTO 28013G21KT 10SM BKN047 BKN110 05/M03 A2968 RMK AO2 T00461035
KDNV 112355Z AUTO 28011G22KT 10SM SCT049 BKN110 05/M04 A2967 RMK AO2 T00501036 10091 20050
KDNV 112335Z AUTO 27012G21KT 10SM SCT100 05/M04 A2966 RMK AO2 T00521038
KDNV 112315Z AUTO 27018G23KT 10SM CLR 06/M04 A2965 RMK AO2 T00561040
KDNV 112255Z AUTO 27016G24KT 10SM SCT110 06/M04 A2965 RMK AO2 T00631040
KDNV 112235Z AUTO 27016G23KT 10SM BKN110 07/M04 A2965 RMK AO2 T00711040
KDNV 112215Z AUTO 27017G23KT 10SM CLR 08/M04 A2964 RMK AO2 T00821038
KDNV 112155Z AUTO 25013G22KT 10SM CLR 09/M03 A2963 RMK AO2 T00901030
KDNV 112135Z AUTO 22012KT 10SM CLR 09/M01 A2961 RMK AO2 T00861012